sensor_id;sensor_type;location;lat;lon;timestamp;P1;durP1;ratioP1;P2;durP2;ratioP2
66826;SDS011;53727;45.242;19.796;2022-12-11T00:02:07;10.65;;;7.93;;
66826;SDS011;53727;45.242;19.796;2022-12-11T00:04:33;10.07;;;7.70;;
66826;SDS011;53727;45.242;19.796;2022-12-11T00:06:59;9.57;;;8.60;;
66826;SDS011;53727;45.242;19.796;2022-12-11T00:09:25;10.50;;;8.07;;
66826;SDS011;53727;45.242;19.796;2022-12-11T00:11:52;10.07;;;7.18;;
66826;SDS011;53727;45.242;19.796;2022-12-11T00:14:18;9.70;;;7.85;;
66826;SDS011;53727;45.242;19.796;2022-12-11T00:16:46;11.70;;;8.20;;
66826;SDS011;53727;45.242;19.796;2022-12-11T00:19:12;13.45;;;8.32;;
66826;SDS011;53727;45.242;19.796;2022-12-11T00:21:38;10.20;;;7.97;;
66826;SDS011;53727;45.242;19.796;2022-12-11T00:24:04;10.45;;;8.70;;
66826;SDS011;53727;45.242;19.796;2022-12-11T00:26:30;11.38;;;8.95;;
66826;SDS011;53727;45.242;19.796;2022-12-11T00:28:56;10.75;;;8.77;;
66826;SDS011;53727;45.242;19.796;2022-12-11T00:31:23;10.38;;;9.27;;
66826;SDS011;53727;45.242;19.796;2022-12-11T00:33:49;10.23;;;9.02;;
66826;SDS011;53727;45.242;19.796;2022-12-11T00:36:25;12.80;;;10.57;;
66826;SDS011;53727;45.242;19.796;2022-12-11T00:38:51;12.13;;;8.82;;
66826;SDS011;53727;45.242;19.796;2022-12-11T00:41:18;11.50;;;9.50;;
66826;SDS011;53727;45.242;19.796;2022-12-11T00:43:44;11.95;;;9.77;;
66826;SDS011;53727;45.242;19.796;2022-12-11T00:46:10;14.38;;;7.80;;
66826;SDS011;53727;45.242;19.796;2022-12-11T00:48:37;12.25;;;7.30;;
66826;SDS011;53727;45.242;19.796;2022-12-11T00:51:03;8.68;;;6.13;;
66826;SDS011;53727;45.242;19.796;2022-12-11T00:53:30;6.65;;;5.63;;
66826;SDS011;53727;45.242;19.796;2022-12-11T00:55:56;7.47;;;4.13;;
66826;SDS011;53727;45.242;19.796;2022-12-11T00:58:22;6.28;;;4.65;;
66826;SDS011;53727;45.242;19.796;2022-12-11T01:00:48;9.50;;;4.65;;
66826;SDS011;53727;45.242;19.796;2022-12-11T01:03:15;9.85;;;5.63;;
66826;SDS011;53727;45.242;19.796;2022-12-11T01:05:50;8.35;;;5.45;;
66826;SDS011;53727;45.242;19.796;2022-12-11T01:08:17;7.65;;;5.28;;
66826;SDS011;53727;45.242;19.796;2022-12-11T01:10:43;6.43;;;5.20;;
66826;SDS011;53727;45.242;19.796;2022-12-11T01:13:09;9.55;;;5.40;;
66826;SDS011;53727;45.242;19.796;2022-12-11T01:15:39;5.95;;;5.03;;
66826;SDS011;53727;45.242;19.796;2022-12-11T01:18:05;8.27;;;6.70;;
66826;SDS011;53727;45.242;19.796;2022-12-11T01:20:31;7.18;;;5.57;;
66826;SDS011;53727;45.242;19.796;2022-12-11T01:22:58;8.10;;;5.85;;
66826;SDS011;53727;45.242;19.796;2022-12-11T01:25:24;6.40;;;4.93;;
66826;SDS011;53727;45.242;19.796;2022-12-11T01:27:51;6.38;;;5.78;;
66826;SDS011;53727;45.242;19.796;2022-12-11T01:30:18;7.55;;;5.65;;
66826;SDS011;53727;45.242;19.796;2022-12-11T01:32:44;6.88;;;5.65;;
66826;SDS011;53727;45.242;19.796;2022-12-11T01:35:12;6.38;;;5.30;;
66826;SDS011;53727;45.242;19.796;2022-12-11T01:37:38;6.88;;;5.20;;
66826;SDS011;53727;45.242;19.796;2022-12-11T01:40:05;7.95;;;5.13;;
66826;SDS011;53727;45.242;19.796;2022-12-11T01:42:32;6.38;;;5.03;;
66826;SDS011;53727;45.242;19.796;2022-12-11T01:47:43;6.70;;;4.80;;
66826;SDS011;53727;45.242;19.796;2022-12-11T01:50:09;6.43;;;5.05;;
66826;SDS011;53727;45.242;19.796;2022-12-11T01:52:35;5.40;;;4.47;;
66826;SDS011;53727;45.242;19.796;2022-12-11T01:55:01;5.82;;;4.68;;
66826;SDS011;53727;45.242;19.796;2022-12-11T01:57:27;4.75;;;3.85;;
66826;SDS011;53727;45.242;19.796;2022-12-11T01:59:54;4.38;;;3.97;;
66826;SDS011;53727;45.242;19.796;2022-12-11T02:02:25;5.70;;;4.47;;
66826;SDS011;53727;45.242;19.796;2022-12-11T02:04:52;6.20;;;4.85;;
66826;SDS011;53727;45.242;19.796;2022-12-11T02:07:18;6.82;;;5.53;;
66826;SDS011;53727;45.242;19.796;2022-12-11T02:09:45;7.22;;;5.63;;
66826;SDS011;53727;45.242;19.796;2022-12-11T02:15:06;6.78;;;5.80;;
66826;SDS011;53727;45.242;19.796;2022-12-11T02:17:39;7.70;;;6.57;;
66826;SDS011;53727;45.242;19.796;2022-12-11T02:22:48;7.45;;;6.18;;
66826;SDS011;53727;45.242;19.796;2022-12-11T02:30:29;5.65;;;4.35;;
66826;SDS011;53727;45.242;19.796;2022-12-11T02:32:57;4.65;;;3.58;;
66826;SDS011;53727;45.242;19.796;2022-12-11T02:35:25;4.25;;;3.47;;
66826;SDS011;53727;45.242;19.796;2022-12-11T02:37:55;5.18;;;3.90;;
66826;SDS011;53727;45.242;19.796;2022-12-11T02:40:21;6.47;;;5.85;;
66826;SDS011;53727;45.242;19.796;2022-12-11T02:42:49;7.57;;;5.93;;
66826;SDS011;53727;45.242;19.796;2022-12-11T02:45:16;7.22;;;6.25;;
66826;SDS011;53727;45.242;19.796;2022-12-11T02:47:43;8.13;;;5.85;;
66826;SDS011;53727;45.242;19.796;2022-12-11T02:50:12;8.95;;;6.45;;
66826;SDS011;53727;45.242;19.796;2022-12-11T02:52:39;8.65;;;7.80;;
66826;SDS011;53727;45.242;19.796;2022-12-11T02:55:07;9.43;;;7.88;;
66826;SDS011;53727;45.242;19.796;2022-12-11T03:00:02;10.55;;;9.07;;
66826;SDS011;53727;45.242;19.796;2022-12-11T03:02:29;10.48;;;8.65;;
66826;SDS011;53727;45.242;19.796;2022-12-11T03:04:56;9.57;;;8.60;;
66826;SDS011;53727;45.242;19.796;2022-12-11T03:07:24;9.38;;;8.40;;
66826;SDS011;53727;45.242;19.796;2022-12-11T03:09:51;10.93;;;8.90;;
66826;SDS011;53727;45.242;19.796;2022-12-11T03:12:22;9.88;;;8.88;;
66826;SDS011;53727;45.242;19.796;2022-12-11T03:14:49;10.20;;;9.25;;
66826;SDS011;53727;45.242;19.796;2022-12-11T03:17:26;11.93;;;8.85;;
66826;SDS011;53727;45.242;19.796;2022-12-11T03:22:25;10.35;;;8.15;;
66826;SDS011;53727;45.242;19.796;2022-12-11T03:25:00;9.75;;;8.80;;
66826;SDS011;53727;45.242;19.796;2022-12-11T03:29:57;10.88;;;9.77;;
66826;SDS011;53727;45.242;19.796;2022-12-11T03:32:28;11.80;;;10.60;;
66826;SDS011;53727;45.242;19.796;2022-12-11T03:34:58;11.10;;;9.05;;
66826;SDS011;53727;45.242;19.796;2022-12-11T03:37:28;8.88;;;7.38;;
66826;SDS011;53727;45.242;19.796;2022-12-11T03:39:57;9.45;;;8.48;;
66826;SDS011;53727;45.242;19.796;2022-12-11T03:42:24;13.20;;;9.90;;
66826;SDS011;53727;45.242;19.796;2022-12-11T03:44:51;10.68;;;9.70;;
66826;SDS011;53727;45.242;19.796;2022-12-11T03:47:20;12.23;;;10.23;;
66826;SDS011;53727;45.242;19.796;2022-12-11T03:49:48;11.60;;;9.82;;
66826;SDS011;53727;45.242;19.796;2022-12-11T03:52:17;11.45;;;10.20;;
66826;SDS011;53727;45.242;19.796;2022-12-11T03:54:45;11.45;;;9.88;;
66826;SDS011;53727;45.242;19.796;2022-12-11T03:57:14;9.73;;;8.73;;
66826;SDS011;53727;45.242;19.796;2022-12-11T03:59:41;10.80;;;9.70;;
66826;SDS011;53727;45.242;19.796;2022-12-11T04:02:07;11.27;;;10.13;;
66826;SDS011;53727;45.242;19.796;2022-12-11T04:04:35;10.50;;;9.40;;
66826;SDS011;53727;45.242;19.796;2022-12-11T04:07:01;10.05;;;8.80;;
66826;SDS011;53727;45.242;19.796;2022-12-11T04:09:27;9.10;;;8.20;;
66826;SDS011;53727;45.242;19.796;2022-12-11T04:11:54;15.15;;;13.45;;
66826;SDS011;53727;45.242;19.796;2022-12-11T04:14:20;10.50;;;9.50;;
66826;SDS011;53727;45.242;19.796;2022-12-11T04:17:05;10.15;;;8.73;;
66826;SDS011;53727;45.242;19.796;2022-12-11T04:19:31;11.85;;;9.43;;
66826;SDS011;53727;45.242;19.796;2022-12-11T04:22:17;9.77;;;8.73;;
66826;SDS011;53727;45.242;19.796;2022-12-11T04:25:02;8.40;;;7.60;;
66826;SDS011;53727;45.242;19.796;2022-12-11T04:27:29;9.45;;;8.52;;
66826;SDS011;53727;45.242;19.796;2022-12-11T04:30:18;8.02;;;7.22;;
66826;SDS011;53727;45.242;19.796;2022-12-11T04:32:45;10.88;;;9.05;;
66826;SDS011;53727;45.242;19.796;2022-12-11T04:35:11;8.93;;;8.10;;
66826;SDS011;53727;45.242;19.796;2022-12-11T04:37:38;9.70;;;8.70;;
66826;SDS011;53727;45.242;19.796;2022-12-11T04:40:05;9.73;;;8.57;;
66826;SDS011;53727;45.242;19.796;2022-12-11T04:42:31;10.40;;;9.30;;
66826;SDS011;53727;45.242;19.796;2022-12-11T04:44:58;9.50;;;8.02;;
66826;SDS011;53727;45.242;19.796;2022-12-11T04:47:24;8.10;;;7.30;;
66826;SDS011;53727;45.242;19.796;2022-12-11T04:49:50;8.32;;;7.43;;
66826;SDS011;53727;45.242;19.796;2022-12-11T04:52:16;9.02;;;8.02;;
66826;SDS011;53727;45.242;19.796;2022-12-11T04:54:43;9.02;;;7.70;;
66826;SDS011;53727;45.242;19.796;2022-12-11T04:57:09;10.27;;;9.27;;
66826;SDS011;53727;45.242;19.796;2022-12-11T04:59:35;11.00;;;8.80;;
66826;SDS011;53727;45.242;19.796;2022-12-11T05:02:01;11.15;;;9.82;;
66826;SDS011;53727;45.242;19.796;2022-12-11T05:04:31;10.45;;;9.35;;
66826;SDS011;53727;45.242;19.796;2022-12-11T05:06:59;10.23;;;8.70;;
66826;SDS011;53727;45.242;19.796;2022-12-11T05:09:25;9.15;;;7.57;;
66826;SDS011;53727;45.242;19.796;2022-12-11T05:11:51;11.65;;;10.45;;
66826;SDS011;53727;45.242;19.796;2022-12-11T05:14:18;10.25;;;9.15;;
66826;SDS011;53727;45.242;19.796;2022-12-11T05:16:44;12.00;;;10.68;;
66826;SDS011;53727;45.242;19.796;2022-12-11T05:19:10;10.82;;;9.73;;
66826;SDS011;53727;45.242;19.796;2022-12-11T05:21:37;11.63;;;10.32;;
66826;SDS011;53727;45.242;19.796;2022-12-11T05:24:03;11.68;;;10.48;;
66826;SDS011;53727;45.242;19.796;2022-12-11T05:26:30;11.43;;;9.80;;
66826;SDS011;53727;45.242;19.796;2022-12-11T05:28:56;13.48;;;11.88;;
66826;SDS011;53727;45.242;19.796;2022-12-11T05:31:23;14.93;;;13.27;;
66826;SDS011;53727;45.242;19.796;2022-12-11T05:33:50;12.32;;;10.95;;
66826;SDS011;53727;45.242;19.796;2022-12-11T05:36:18;14.80;;;11.77;;
66826;SDS011;53727;45.242;19.796;2022-12-11T05:38:44;13.63;;;12.13;;
66826;SDS011;53727;45.242;19.796;2022-12-11T05:41:11;14.90;;;11.25;;
66826;SDS011;53727;45.242;19.796;2022-12-11T05:43:38;13.48;;;10.77;;
66826;SDS011;53727;45.242;19.796;2022-12-11T05:46:27;14.40;;;12.88;;
66826;SDS011;53727;45.242;19.796;2022-12-11T05:48:53;15.77;;;13.90;;
66826;SDS011;53727;45.242;19.796;2022-12-11T05:51:20;14.82;;;13.15;;
66826;SDS011;53727;45.242;19.796;2022-12-11T05:53:47;16.35;;;12.80;;
66826;SDS011;53727;45.242;19.796;2022-12-11T05:56:21;18.23;;;14.27;;
66826;SDS011;53727;45.242;19.796;2022-12-11T06:01:18;16.98;;;15.15;;
66826;SDS011;53727;45.242;19.796;2022-12-11T06:03:44;19.33;;;15.40;;
66826;SDS011;53727;45.242;19.796;2022-12-11T06:06:10;20.10;;;16.02;;
66826;SDS011;53727;45.242;19.796;2022-12-11T06:08:36;21.27;;;16.65;;
66826;SDS011;53727;45.242;19.796;2022-12-11T06:11:04;21.85;;;18.92;;
66826;SDS011;53727;45.242;19.796;2022-12-11T06:13:30;23.88;;;18.95;;
66826;SDS011;53727;45.242;19.796;2022-12-11T06:16:02;24.33;;;19.63;;
66826;SDS011;53727;45.242;19.796;2022-12-11T06:18:28;22.83;;;18.88;;
66826;SDS011;53727;45.242;19.796;2022-12-11T06:20:54;25.30;;;19.08;;
66826;SDS011;53727;45.242;19.796;2022-12-11T06:23:21;23.95;;;16.83;;
66826;SDS011;53727;45.242;19.796;2022-12-11T06:25:47;27.42;;;19.67;;
66826;SDS011;53727;45.242;19.796;2022-12-11T06:28:14;25.00;;;19.75;;
66826;SDS011;53727;45.242;19.796;2022-12-11T06:30:40;24.83;;;18.50;;
66826;SDS011;53727;45.242;19.796;2022-12-11T06:33:06;25.52;;;20.23;;
66826;SDS011;53727;45.242;19.796;2022-12-11T06:35:35;29.90;;;20.67;;
66826;SDS011;53727;45.242;19.796;2022-12-11T06:38:01;24.15;;;19.60;;
66826;SDS011;53727;45.242;19.796;2022-12-11T06:40:27;21.08;;;18.60;;
66826;SDS011;53727;45.242;19.796;2022-12-11T06:42:53;22.27;;;19.88;;
66826;SDS011;53727;45.242;19.796;2022-12-11T06:45:19;23.40;;;19.13;;
66826;SDS011;53727;45.242;19.796;2022-12-11T06:47:45;25.23;;;18.98;;
66826;SDS011;53727;45.242;19.796;2022-12-11T06:50:11;25.80;;;20.50;;
66826;SDS011;53727;45.242;19.796;2022-12-11T06:52:37;24.80;;;19.42;;
66826;SDS011;53727;45.242;19.796;2022-12-11T06:55:04;30.77;;;21.23;;
66826;SDS011;53727;45.242;19.796;2022-12-11T06:57:31;28.80;;;21.35;;
66826;SDS011;53727;45.242;19.796;2022-12-11T06:59:59;32.70;;;22.90;;
66826;SDS011;53727;45.242;19.796;2022-12-11T07:02:25;32.78;;;23.85;;
66826;SDS011;53727;45.242;19.796;2022-12-11T07:04:51;30.92;;;22.30;;
66826;SDS011;53727;45.242;19.796;2022-12-11T07:07:18;29.15;;;22.70;;
66826;SDS011;53727;45.242;19.796;2022-12-11T07:09:44;28.25;;;20.58;;
66826;SDS011;53727;45.242;19.796;2022-12-11T07:12:10;28.92;;;22.10;;
66826;SDS011;53727;45.242;19.796;2022-12-11T07:14:36;28.75;;;19.88;;
66826;SDS011;53727;45.242;19.796;2022-12-11T07:17:02;32.40;;;25.33;;
66826;SDS011;53727;45.242;19.796;2022-12-11T07:19:28;30.05;;;20.60;;
66826;SDS011;53727;45.242;19.796;2022-12-11T07:21:54;32.65;;;22.73;;
66826;SDS011;53727;45.242;19.796;2022-12-11T07:24:21;26.60;;;18.50;;
66826;SDS011;53727;45.242;19.796;2022-12-11T07:26:47;27.55;;;18.95;;
66826;SDS011;53727;45.242;19.796;2022-12-11T07:29:13;30.02;;;21.60;;
66826;SDS011;53727;45.242;19.796;2022-12-11T07:31:39;35.10;;;29.65;;
66826;SDS011;53727;45.242;19.796;2022-12-11T07:34:06;32.72;;;22.13;;
66826;SDS011;53727;45.242;19.796;2022-12-11T07:36:32;36.30;;;27.98;;
66826;SDS011;53727;45.242;19.796;2022-12-11T07:38:59;32.67;;;25.05;;
66826;SDS011;53727;45.242;19.796;2022-12-11T07:41:26;31.23;;;24.00;;
66826;SDS011;53727;45.242;19.796;2022-12-11T07:43:53;37.17;;;27.85;;
66826;SDS011;53727;45.242;19.796;2022-12-11T07:46:21;46.05;;;29.73;;
66826;SDS011;53727;45.242;19.796;2022-12-11T07:48:48;42.25;;;28.55;;
66826;SDS011;53727;45.242;19.796;2022-12-11T07:53:41;43.50;;;29.52;;
66826;SDS011;53727;45.242;19.796;2022-12-11T07:56:07;37.92;;;27.75;;
66826;SDS011;53727;45.242;19.796;2022-12-11T07:58:33;36.72;;;25.17;;
66826;SDS011;53727;45.242;19.796;2022-12-11T08:01:00;41.50;;;29.63;;
66826;SDS011;53727;45.242;19.796;2022-12-11T08:03:26;36.28;;;27.00;;
66826;SDS011;53727;45.242;19.796;2022-12-11T08:05:52;39.10;;;29.77;;
66826;SDS011;53727;45.242;19.796;2022-12-11T08:08:19;39.95;;;27.38;;
66826;SDS011;53727;45.242;19.796;2022-12-11T08:10:45;39.97;;;26.42;;
66826;SDS011;53727;45.242;19.796;2022-12-11T08:13:11;35.70;;;26.85;;
66826;SDS011;53727;45.242;19.796;2022-12-11T08:15:38;40.20;;;25.52;;
66826;SDS011;53727;45.242;19.796;2022-12-11T08:18:04;34.63;;;25.10;;
66826;SDS011;53727;45.242;19.796;2022-12-11T08:20:30;40.70;;;27.48;;
66826;SDS011;53727;45.242;19.796;2022-12-11T08:22:56;36.88;;;25.50;;
66826;SDS011;53727;45.242;19.796;2022-12-11T08:25:22;39.75;;;25.52;;
66826;SDS011;53727;45.242;19.796;2022-12-11T08:27:48;35.35;;;25.27;;
66826;SDS011;53727;45.242;19.796;2022-12-11T08:30:14;35.40;;;24.90;;
66826;SDS011;53727;45.242;19.796;2022-12-11T08:32:41;38.70;;;27.67;;
66826;SDS011;53727;45.242;19.796;2022-12-11T08:35:07;30.75;;;23.75;;
66826;SDS011;53727;45.242;19.796;2022-12-11T08:37:33;34.22;;;22.95;;
66826;SDS011;53727;45.242;19.796;2022-12-11T08:39:59;35.63;;;22.63;;
66826;SDS011;53727;45.242;19.796;2022-12-11T08:42:25;34.58;;;27.02;;
66826;SDS011;53727;45.242;19.796;2022-12-11T08:44:51;39.30;;;24.10;;
66826;SDS011;53727;45.242;19.796;2022-12-11T08:47:17;35.88;;;27.10;;
66826;SDS011;53727;45.242;19.796;2022-12-11T08:49:44;42.60;;;28.17;;
66826;SDS011;53727;45.242;19.796;2022-12-11T08:52:10;53.28;;;31.70;;
66826;SDS011;53727;45.242;19.796;2022-12-11T08:54:36;41.03;;;25.42;;
66826;SDS011;53727;45.242;19.796;2022-12-11T08:57:02;40.97;;;27.52;;
66826;SDS011;53727;45.242;19.796;2022-12-11T08:59:28;49.10;;;30.85;;
66826;SDS011;53727;45.242;19.796;2022-12-11T09:01:54;41.42;;;27.67;;
66826;SDS011;53727;45.242;19.796;2022-12-11T09:04:21;46.42;;;26.77;;
66826;SDS011;53727;45.242;19.796;2022-12-11T09:06:47;43.75;;;30.98;;
66826;SDS011;53727;45.242;19.796;2022-12-11T09:09:14;42.63;;;26.95;;
66826;SDS011;53727;45.242;19.796;2022-12-11T09:11:40;40.22;;;27.58;;
66826;SDS011;53727;45.242;19.796;2022-12-11T09:14:07;36.55;;;29.02;;
66826;SDS011;53727;45.242;19.796;2022-12-11T09:16:34;43.75;;;25.70;;
66826;SDS011;53727;45.242;19.796;2022-12-11T09:19:02;44.00;;;28.88;;
66826;SDS011;53727;45.242;19.796;2022-12-11T09:21:28;42.80;;;29.02;;
66826;SDS011;53727;45.242;19.796;2022-12-11T09:23:56;47.47;;;27.50;;
66826;SDS011;53727;45.242;19.796;2022-12-11T09:26:22;34.10;;;22.77;;
66826;SDS011;53727;45.242;19.796;2022-12-11T09:28:49;39.60;;;24.23;;
66826;SDS011;53727;45.242;19.796;2022-12-11T09:31:24;39.40;;;24.80;;
66826;SDS011;53727;45.242;19.796;2022-12-11T09:33:52;40.78;;;26.83;;
66826;SDS011;53727;45.242;19.796;2022-12-11T09:36:18;37.95;;;23.58;;
66826;SDS011;53727;45.242;19.796;2022-12-11T09:38:45;42.75;;;27.55;;
66826;SDS011;53727;45.242;19.796;2022-12-11T09:43:42;41.15;;;27.40;;
66826;SDS011;53727;45.242;19.796;2022-12-11T09:46:12;37.63;;;26.20;;
66826;SDS011;53727;45.242;19.796;2022-12-11T09:48:39;35.35;;;25.13;;
66826;SDS011;53727;45.242;19.796;2022-12-11T09:53:48;37.90;;;24.50;;
66826;SDS011;53727;45.242;19.796;2022-12-11T09:56:24;35.72;;;25.73;;
66826;SDS011;53727;45.242;19.796;2022-12-11T09:59:07;33.15;;;24.63;;
66826;SDS011;53727;45.242;19.796;2022-12-11T10:17:10;37.53;;;23.20;;
66826;SDS011;53727;45.242;19.796;2022-12-11T10:19:37;34.22;;;23.73;;
66826;SDS011;53727;45.242;19.796;2022-12-11T10:22:07;38.95;;;23.63;;
66826;SDS011;53727;45.242;19.796;2022-12-11T10:24:41;37.38;;;26.55;;
66826;SDS011;53727;45.242;19.796;2022-12-11T10:27:13;38.67;;;23.45;;
66826;SDS011;53727;45.242;19.796;2022-12-11T10:29:40;36.80;;;21.67;;
66826;SDS011;53727;45.242;19.796;2022-12-11T10:32:10;32.08;;;20.52;;
66826;SDS011;53727;45.242;19.796;2022-12-11T10:34:41;40.30;;;26.25;;
66826;SDS011;53727;45.242;19.796;2022-12-11T10:37:10;37.28;;;23.58;;
66826;SDS011;53727;45.242;19.796;2022-12-11T10:39:36;40.20;;;27.65;;
66826;SDS011;53727;45.242;19.796;2022-12-11T10:42:05;38.67;;;21.98;;
66826;SDS011;53727;45.242;19.796;2022-12-11T10:44:39;42.28;;;27.60;;
66826;SDS011;53727;45.242;19.796;2022-12-11T10:49:32;39.35;;;24.48;;
66826;SDS011;53727;45.242;19.796;2022-12-11T10:51:58;44.30;;;26.83;;
66826;SDS011;53727;45.242;19.796;2022-12-11T10:54:32;42.08;;;25.90;;
66826;SDS011;53727;45.242;19.796;2022-12-11T10:57:02;31.40;;;20.95;;
66826;SDS011;53727;45.242;19.796;2022-12-11T11:04:52;35.95;;;22.30;;
66826;SDS011;53727;45.242;19.796;2022-12-11T11:07:26;36.10;;;23.50;;
66826;SDS011;53727;45.242;19.796;2022-12-11T11:12:42;39.78;;;24.20;;
66826;SDS011;53727;45.242;19.796;2022-12-11T11:15:11;42.63;;;26.90;;
66826;SDS011;53727;45.242;19.796;2022-12-11T11:17:50;45.80;;;27.90;;
66826;SDS011;53727;45.242;19.796;2022-12-11T11:20:17;35.30;;;23.88;;
66826;SDS011;53727;45.242;19.796;2022-12-11T11:22:45;39.45;;;25.42;;
66826;SDS011;53727;45.242;19.796;2022-12-11T11:25:16;35.55;;;21.27;;
66826;SDS011;53727;45.242;19.796;2022-12-11T11:27:44;37.05;;;22.15;;
66826;SDS011;53727;45.242;19.796;2022-12-11T11:32:45;29.52;;;19.20;;
66826;SDS011;53727;45.242;19.796;2022-12-11T11:37:38;32.92;;;20.50;;
66826;SDS011;53727;45.242;19.796;2022-12-11T11:40:07;38.25;;;23.35;;
66826;SDS011;53727;45.242;19.796;2022-12-11T11:48:01;38.78;;;27.08;;
66826;SDS011;53727;45.242;19.796;2022-12-11T11:50:31;38.53;;;24.80;;
66826;SDS011;53727;45.242;19.796;2022-12-11T11:53:01;33.40;;;20.77;;
66826;SDS011;53727;45.242;19.796;2022-12-11T11:55:37;35.15;;;21.88;;
66826;SDS011;53727;45.242;19.796;2022-12-11T11:58:08;31.60;;;20.13;;
66826;SDS011;53727;45.242;19.796;2022-12-11T12:00:39;32.63;;;20.25;;
66826;SDS011;53727;45.242;19.796;2022-12-11T12:03:10;38.70;;;27.15;;
66826;SDS011;53727;45.242;19.796;2022-12-11T12:05:44;38.38;;;24.05;;
66826;SDS011;53727;45.242;19.796;2022-12-11T12:13:45;36.63;;;22.50;;
66826;SDS011;53727;45.242;19.796;2022-12-11T12:19:12;30.83;;;20.05;;
66826;SDS011;53727;45.242;19.796;2022-12-11T12:21:41;32.85;;;19.42;;
66826;SDS011;53727;45.242;19.796;2022-12-11T12:24:27;29.83;;;19.60;;
66826;SDS011;53727;45.242;19.796;2022-12-11T12:27:05;29.17;;;18.75;;
66826;SDS011;53727;45.242;19.796;2022-12-11T12:42:27;35.20;;;20.15;;
66826;SDS011;53727;45.242;19.796;2022-12-11T12:44:57;31.77;;;19.75;;
66826;SDS011;53727;45.242;19.796;2022-12-11T12:47:23;28.55;;;18.13;;
66826;SDS011;53727;45.242;19.796;2022-12-11T12:49:51;33.25;;;19.65;;
66826;SDS011;53727;45.242;19.796;2022-12-11T12:52:19;31.85;;;22.95;;
66826;SDS011;53727;45.242;19.796;2022-12-11T12:54:47;30.40;;;19.50;;
66826;SDS011;53727;45.242;19.796;2022-12-11T12:57:34;35.40;;;23.08;;
66826;SDS011;53727;45.242;19.796;2022-12-11T13:00:06;28.70;;;19.00;;
66826;SDS011;53727;45.242;19.796;2022-12-11T13:02:32;33.95;;;22.17;;
66826;SDS011;53727;45.242;19.796;2022-12-11T13:04:59;31.38;;;19.80;;
66826;SDS011;53727;45.242;19.796;2022-12-11T13:07:30;33.60;;;22.60;;
66826;SDS011;53727;45.242;19.796;2022-12-11T13:12:30;31.08;;;19.48;;
66826;SDS011;53727;45.242;19.796;2022-12-11T13:14:56;34.85;;;22.17;;
66826;SDS011;53727;45.242;19.796;2022-12-11T13:17:23;31.48;;;22.15;;
66826;SDS011;53727;45.242;19.796;2022-12-11T13:19:50;34.45;;;23.45;;
66826;SDS011;53727;45.242;19.796;2022-12-11T13:22:28;32.28;;;21.15;;
66826;SDS011;53727;45.242;19.796;2022-12-11T13:27:54;35.60;;;22.75;;
66826;SDS011;53727;45.242;19.796;2022-12-11T13:32:40;37.97;;;24.05;;
66826;SDS011;53727;45.242;19.796;2022-12-11T13:35:11;40.20;;;25.10;;
66826;SDS011;53727;45.242;19.796;2022-12-11T13:37:40;28.42;;;19.67;;
66826;SDS011;53727;45.242;19.796;2022-12-11T13:40:13;36.03;;;21.70;;
66826;SDS011;53727;45.242;19.796;2022-12-11T13:42:44;34.38;;;25.15;;
66826;SDS011;53727;45.242;19.796;2022-12-11T13:45:20;34.15;;;21.77;;
66826;SDS011;53727;45.242;19.796;2022-12-11T13:47:47;31.13;;;23.02;;
66826;SDS011;53727;45.242;19.796;2022-12-11T13:50:19;32.40;;;23.50;;
66826;SDS011;53727;45.242;19.796;2022-12-11T13:52:53;36.97;;;23.55;;
66826;SDS011;53727;45.242;19.796;2022-12-11T13:55:24;35.17;;;19.40;;
66826;SDS011;53727;45.242;19.796;2022-12-11T13:57:50;36.47;;;24.70;;
66826;SDS011;53727;45.242;19.796;2022-12-11T14:00:27;32.20;;;21.02;;
66826;SDS011;53727;45.242;19.796;2022-12-11T14:02:57;38.28;;;24.92;;
66826;SDS011;53727;45.242;19.796;2022-12-11T14:05:24;33.85;;;21.35;;
66826;SDS011;53727;45.242;19.796;2022-12-11T14:07:58;40.67;;;25.02;;
66826;SDS011;53727;45.242;19.796;2022-12-11T14:10:28;31.13;;;20.63;;
66826;SDS011;53727;45.242;19.796;2022-12-11T14:15:21;46.45;;;27.85;;
66826;SDS011;53727;45.242;19.796;2022-12-11T14:17:47;51.75;;;34.13;;
66826;SDS011;53727;45.242;19.796;2022-12-11T14:20:18;30.65;;;20.08;;
66826;SDS011;53727;45.242;19.796;2022-12-11T14:22:44;37.92;;;24.20;;
66826;SDS011;53727;45.242;19.796;2022-12-11T14:25:18;35.15;;;22.80;;
66826;SDS011;53727;45.242;19.796;2022-12-11T14:27:46;35.80;;;23.38;;
66826;SDS011;53727;45.242;19.796;2022-12-11T14:30:18;33.72;;;21.45;;
66826;SDS011;53727;45.242;19.796;2022-12-11T14:32:45;32.85;;;24.42;;
66826;SDS011;53727;45.242;19.796;2022-12-11T14:35:23;34.05;;;21.52;;
66826;SDS011;53727;45.242;19.796;2022-12-11T14:37:50;37.83;;;22.92;;
66826;SDS011;53727;45.242;19.796;2022-12-11T14:40:17;33.08;;;21.38;;
66826;SDS011;53727;45.242;19.796;2022-12-11T14:42:47;28.33;;;19.40;;
66826;SDS011;53727;45.242;19.796;2022-12-11T14:45:19;31.08;;;19.92;;
66826;SDS011;53727;45.242;19.796;2022-12-11T14:47:45;32.42;;;20.85;;
66826;SDS011;53727;45.242;19.796;2022-12-11T14:52:45;28.83;;;18.88;;
66826;SDS011;53727;45.242;19.796;2022-12-11T14:55:23;33.55;;;20.63;;
66826;SDS011;53727;45.242;19.796;2022-12-11T14:57:51;27.83;;;18.73;;
66826;SDS011;53727;45.242;19.796;2022-12-11T15:00:24;31.63;;;21.77;;
66826;SDS011;53727;45.242;19.796;2022-12-11T15:02:57;29.65;;;21.25;;
66826;SDS011;53727;45.242;19.796;2022-12-11T15:05:23;32.03;;;19.35;;
66826;SDS011;53727;45.242;19.796;2022-12-11T15:10:26;36.92;;;23.40;;
66826;SDS011;53727;45.242;19.796;2022-12-11T15:12:55;31.20;;;21.17;;
66826;SDS011;53727;45.242;19.796;2022-12-11T15:15:22;29.23;;;18.88;;
66826;SDS011;53727;45.242;19.796;2022-12-11T15:17:48;32.40;;;21.60;;
66826;SDS011;53727;45.242;19.796;2022-12-11T15:20:20;30.45;;;18.38;;
66826;SDS011;53727;45.242;19.796;2022-12-11T15:22:47;35.08;;;20.95;;
66826;SDS011;53727;45.242;19.796;2022-12-11T15:25:17;34.85;;;22.30;;
66826;SDS011;53727;45.242;19.796;2022-12-11T15:27:43;35.05;;;22.60;;
66826;SDS011;53727;45.242;19.796;2022-12-11T15:30:14;36.58;;;20.67;;
66826;SDS011;53727;45.242;19.796;2022-12-11T15:32:41;29.52;;;20.90;;
66826;SDS011;53727;45.242;19.796;2022-12-11T15:35:26;29.60;;;20.15;;
66826;SDS011;53727;45.242;19.796;2022-12-11T15:37:53;28.13;;;18.00;;
66826;SDS011;53727;45.242;19.796;2022-12-11T15:40:19;28.13;;;19.55;;
66826;SDS011;53727;45.242;19.796;2022-12-11T15:42:45;34.13;;;21.48;;
66826;SDS011;53727;45.242;19.796;2022-12-11T15:45:17;28.55;;;18.08;;
66826;SDS011;53727;45.242;19.796;2022-12-11T15:47:44;26.77;;;17.85;;
66826;SDS011;53727;45.242;19.796;2022-12-11T15:52:43;35.90;;;21.45;;
66826;SDS011;53727;45.242;19.796;2022-12-11T15:55:09;42.25;;;22.60;;
66826;SDS011;53727;45.242;19.796;2022-12-11T15:57:35;28.63;;;18.00;;
66826;SDS011;53727;45.242;19.796;2022-12-11T16:00:02;37.53;;;23.70;;
66826;SDS011;53727;45.242;19.796;2022-12-11T16:02:30;27.80;;;18.17;;
66826;SDS011;53727;45.242;19.796;2022-12-11T16:04:56;27.63;;;19.77;;
66826;SDS011;53727;45.242;19.796;2022-12-11T16:07:23;30.15;;;20.50;;
66826;SDS011;53727;45.242;19.796;2022-12-11T16:09:50;28.60;;;19.02;;